AXM6242 WMKP-WMKL
Flight info
| Callsign | AXM6242 |
|---|---|
| Flight time | N/A |
| Altitude | 10100 |
| Route | OMBOK DCT KAPKO KAPKO1E |
| Aircraft | A320/M-SDE3FGHIRWY/LB1 |
Departure
| Time | 2026-05-06 11:04 |
|---|---|
| Airport | Penang International Airport (WMKP) |
Arrival
| Time | N/A |
|---|---|
| Airport | Langkawi International Airport (WMKL) |
| Time | Latitude | Longitude | Altitude | Speed | Heading |
|---|---|---|---|---|---|
| 2026-05-06 10:43 | 5.29196 | 100.26623 | 20 ft | 0 kts | 312° |
| 2026-05-06 10:55 | 5.29190 | 100.26628 | 20 ft | 2 kts | 310° |
| 2026-05-06 10:55 | 5.29176 | 100.26645 | 18 ft | 2 kts | 312° |
| 2026-05-06 10:55 | 5.29169 | 100.26653 | 21 ft | 2 kts | 311° |
| 2026-05-06 10:55 | 5.29158 | 100.26665 | 18 ft | 2 kts | 311° |
| 2026-05-06 10:56 | 5.29147 | 100.26678 | 19 ft | 2 kts | 312° |
| 2026-05-06 10:56 | 5.29135 | 100.26696 | 21 ft | 2 kts | 259° |
| 2026-05-06 10:56 | 5.29142 | 100.26711 | 19 ft | 2 kts | 229° |
| 2026-05-06 10:56 | 5.29148 | 100.26718 | 21 ft | 1 kts | 222° |
| 2026-05-06 10:57 | 5.29148 | 100.26719 | 21 ft | 0 kts | 221° |
| 2026-05-06 11:00 | 5.29148 | 100.26718 | 18 ft | 1 kts | 221° |
| 2026-05-06 11:00 | 5.29120 | 100.26694 | 18 ft | 19 kts | 221° |
| 2026-05-06 11:00 | 5.28987 | 100.26574 | 18 ft | 27 kts | 222° |
| 2026-05-06 11:01 | 5.28884 | 100.26484 | 18 ft | 14 kts | 207° |
| 2026-05-06 11:01 | 5.28821 | 100.26516 | 18 ft | 10 kts | 135° |
| 2026-05-06 11:01 | 5.28775 | 100.26561 | 18 ft | 8 kts | 135° |
| 2026-05-06 11:01 | 5.28728 | 100.26580 | 19 ft | 6 kts | 167° |
| 2026-05-06 11:02 | 5.28690 | 100.26590 | 19 ft | 5 kts | 158° |
| 2026-05-06 11:02 | 5.28670 | 100.26603 | 19 ft | 0 kts | 135° |
| 2026-05-06 11:02 | 5.28662 | 100.26613 | 19 ft | 3 kts | 128° |
| 2026-05-06 11:02 | 5.28635 | 100.26678 | 18 ft | 23 kts | 90° |
| 2026-05-06 11:03 | 5.28718 | 100.26780 | 19 ft | 4 kts | 54° |
| 2026-05-06 11:03 | 5.28720 | 100.26782 | 19 ft | 0 kts | 49° |
| 2026-05-06 11:03 | 5.28732 | 100.26794 | 19 ft | 12 kts | 48° |
| 2026-05-06 11:03 | 5.28986 | 100.27026 | 20 ft | 86 kts | 41° |
| 2026-05-06 11:04 | 5.29598 | 100.27575 | 19 ft | 146 kts | 41° |
| 2026-05-06 11:04 | 5.30464 | 100.28360 | 110 ft | 182 kts | 41° |
| 2026-05-06 11:04 | 5.31413 | 100.29222 | 673 ft | 184 kts | 41° |
| 2026-05-06 11:04 | 5.32378 | 100.30076 | 1224 ft | 189 kts | 41° |
| 2026-05-06 11:05 | 5.33427 | 100.31001 | 1479 ft | 213 kts | 41° |
| 2026-05-06 11:05 | 5.34606 | 100.32041 | 1797 ft | 238 kts | 41° |
| 2026-05-06 11:05 | 5.35909 | 100.33192 | 2196 ft | 261 kts | 41° |
| 2026-05-06 11:05 | 5.37298 | 100.34422 | 2891 ft | 269 kts | 40° |
| 2026-05-06 11:06 | 5.38901 | 100.35374 | 3733 ft | 271 kts | 17° |
| 2026-05-06 11:06 | 5.40765 | 100.35625 | 4638 ft | 272 kts | 356° |
| 2026-05-06 11:06 | 5.42590 | 100.35106 | 5452 ft | 278 kts | 332° |
| 2026-05-06 11:06 | 5.44096 | 100.33863 | 6245 ft | 284 kts | 317° |
| 2026-05-06 11:07 | 5.45499 | 100.32451 | 6984 ft | 288 kts | 316° |
| 2026-05-06 11:07 | 5.46912 | 100.31013 | 7724 ft | 292 kts | 316° |
| 2026-05-06 11:07 | 5.48329 | 100.29568 | 8458 ft | 296 kts | 316° |
| 2026-05-06 11:07 | 5.49784 | 100.28089 | 9190 ft | 300 kts | 316° |
| 2026-05-06 11:08 | 5.51269 | 100.26582 | 9713 ft | 305 kts | 316° |
| 2026-05-06 11:08 | 5.52782 | 100.25051 | 9853 ft | 319 kts | 316° |
| 2026-05-06 11:08 | 5.54418 | 100.23400 | 9893 ft | 348 kts | 316° |
| 2026-05-06 11:08 | 5.56190 | 100.21615 | 9897 ft | 374 kts | 316° |
| 2026-05-06 11:09 | 5.58086 | 100.19704 | 9898 ft | 397 kts | 315° |
| 2026-05-06 11:09 | 5.60064 | 100.17708 | 9902 ft | 407 kts | 315° |
| 2026-05-06 11:09 | 5.62067 | 100.15684 | 9904 ft | 409 kts | 315° |
| 2026-05-06 11:09 | 5.64072 | 100.13657 | 9905 ft | 410 kts | 315° |
| 2026-05-06 11:10 | 5.66079 | 100.11629 | 9916 ft | 410 kts | 315° |
| 2026-05-06 11:10 | 5.68088 | 100.09598 | 9916 ft | 410 kts | 315° |
| 2026-05-06 11:10 | 5.70091 | 100.07573 | 9917 ft | 410 kts | 315° |
| 2026-05-06 11:10 | 5.72103 | 100.05539 | 9916 ft | 410 kts | 315° |
| 2026-05-06 11:11 | 5.74119 | 100.03512 | 9913 ft | 410 kts | 316° |
| 2026-05-06 11:11 | 5.76164 | 100.01520 | 9909 ft | 410 kts | 317° |
| 2026-05-06 11:11 | 5.78236 | 99.99551 | 9896 ft | 410 kts | 317° |
| 2026-05-06 11:11 | 5.80308 | 99.97602 | 9761 ft | 402 kts | 317° |
| 2026-05-06 11:12 | 5.82284 | 99.95745 | 9403 ft | 389 kts | 317° |
| 2026-05-06 11:12 | 5.84242 | 99.93897 | 8853 ft | 382 kts | 317° |
| 2026-05-06 11:12 | 5.86144 | 99.92094 | 8569 ft | 369 kts | 317° |
| 2026-05-06 11:12 | 5.87970 | 99.90358 | 8369 ft | 354 kts | 317° |
| 2026-05-06 11:13 | 5.89718 | 99.88695 | 8178 ft | 340 kts | 317° |
| 2026-05-06 11:13 | 5.91402 | 99.87091 | 7999 ft | 327 kts | 317° |
| 2026-05-06 11:13 | 5.93015 | 99.85551 | 7896 ft | 313 kts | 317° |
| 2026-05-06 11:13 | 5.94558 | 99.84078 | 7799 ft | 300 kts | 317° |
| 2026-05-06 11:14 | 5.96055 | 99.82651 | 7696 ft | 295 kts | 317° |
| 2026-05-06 11:14 | 5.97544 | 99.81231 | 7604 ft | 295 kts | 317° |
| 2026-05-06 11:14 | 5.99027 | 99.79817 | 7506 ft | 294 kts | 317° |
| 2026-05-06 11:14 | 6.00511 | 99.78403 | 7413 ft | 293 kts | 318° |
| 2026-05-06 11:15 | 6.01990 | 99.76992 | 7317 ft | 293 kts | 317° |
| 2026-05-06 11:15 | 6.03467 | 99.75584 | 7223 ft | 293 kts | 317° |
| 2026-05-06 11:15 | 6.04945 | 99.74175 | 7133 ft | 292 kts | 317° |
| 2026-05-06 11:15 | 6.06417 | 99.72770 | 7036 ft | 292 kts | 317° |
| 2026-05-06 11:16 | 6.07887 | 99.71366 | 6947 ft | 291 kts | 317° |
| 2026-05-06 11:16 | 6.09355 | 99.69962 | 6848 ft | 295 kts | 317° |
| 2026-05-06 11:16 | 6.10899 | 99.68401 | 6765 ft | 328 kts | 316° |
| 2026-05-06 11:16 | 6.12672 | 99.67034 | 6467 ft | 318 kts | 330° |
| 2026-05-06 11:17 | 6.14577 | 99.65908 | 5967 ft | 317 kts | 331° |
| 2026-05-06 11:17 | 6.16483 | 99.64800 | 5457 ft | 316 kts | 332° |
| 2026-05-06 11:17 | 6.18453 | 99.63950 | 4945 ft | 301 kts | 353° |
| 2026-05-06 11:17 | 6.20460 | 99.64118 | 4360 ft | 286 kts | 21° |
| 2026-05-06 11:18 | 6.22195 | 99.64971 | 3677 ft | 279 kts | 33° |
| 2026-05-06 11:18 | 6.23775 | 99.66080 | 3014 ft | 275 kts | 38° |
| 2026-05-06 11:18 | 6.25231 | 99.67218 | 3072 ft | 252 kts | 39° |
| 2026-05-06 11:18 | 6.26572 | 99.68261 | 2984 ft | 239 kts | 38° |
| 2026-05-06 11:19 | 6.27896 | 99.69256 | 2660 ft | 237 kts | 37° |
| 2026-05-06 11:19 | 6.29221 | 99.70219 | 2241 ft | 232 kts | 36° |
| 2026-05-06 11:19 | 6.30548 | 99.71159 | 1795 ft | 235 kts | 36° |
| 2026-05-06 11:19 | 6.31902 | 99.72103 | 1354 ft | 239 kts | 35° |
| 2026-05-06 11:20 | 6.33144 | 99.73164 | 1144 ft | 228 kts | 58° |
| 2026-05-06 11:20 | 6.33517 | 99.74643 | 1145 ft | 221 kts | 99° |
| 2026-05-06 11:20 | 6.33510 | 99.74699 | 1145 ft | 221 kts | 101° |
| 2026-05-06 11:20 | 6.33164 | 99.76187 | 1534 ft | 220 kts | 103° |
| 2026-05-06 11:21 | 6.32784 | 99.77690 | 2035 ft | 224 kts | 105° |
| 2026-05-06 11:21 | 6.32368 | 99.79199 | 2540 ft | 225 kts | 104° |
| 2026-05-06 11:21 | 6.31953 | 99.80715 | 3002 ft | 225 kts | 104° |
| 2026-05-06 11:21 | 6.31509 | 99.82223 | 3463 ft | 225 kts | 105° |
| 2026-05-06 11:22 | 6.31071 | 99.83718 | 3801 ft | 226 kts | 104° |
| 2026-05-06 11:22 | 6.30629 | 99.85269 | 4143 ft | 229 kts | 104° |
| 2026-05-06 11:22 | 6.30204 | 99.86792 | 4412 ft | 233 kts | 106° |
| 2026-05-06 11:22 | 6.29364 | 99.88154 | 4298 ft | 232 kts | 139° |
| 2026-05-06 11:23 | 6.27906 | 99.88882 | 4166 ft | 235 kts | 168° |
| 2026-05-06 11:23 | 6.26279 | 99.88819 | 4054 ft | 237 kts | 197° |
| 2026-05-06 11:23 | 6.24888 | 99.87994 | 4013 ft | 239 kts | 226° |
| 2026-05-06 11:23 | 6.23904 | 99.86646 | 4017 ft | 241 kts | 237° |
| 2026-05-06 11:24 | 6.22986 | 99.85237 | 4015 ft | 241 kts | 237° |
| 2026-05-06 11:24 | 6.22070 | 99.83823 | 4015 ft | 241 kts | 237° |
| 2026-05-06 11:24 | 6.21154 | 99.82410 | 4023 ft | 242 kts | 236° |
| 2026-05-06 11:24 | 6.20233 | 99.80994 | 4021 ft | 242 kts | 236° |
| 2026-05-06 11:25 | 6.19309 | 99.79578 | 4019 ft | 242 kts | 236° |
| 2026-05-06 11:25 | 6.18387 | 99.78167 | 4018 ft | 241 kts | 236° |
| 2026-05-06 11:25 | 6.17466 | 99.76756 | 4019 ft | 242 kts | 236° |
| 2026-05-06 11:25 | 6.16541 | 99.75339 | 4012 ft | 242 kts | 236° |
| 2026-05-06 11:26 | 6.15618 | 99.73925 | 3986 ft | 242 kts | 236° |
| 2026-05-06 11:26 | 6.14694 | 99.72510 | 3959 ft | 242 kts | 236° |
| 2026-05-06 11:26 | 6.13768 | 99.71091 | 3909 ft | 243 kts | 236° |
| 2026-05-06 11:26 | 6.12916 | 99.69633 | 3779 ft | 242 kts | 252° |
| 2026-05-06 11:27 | 6.12782 | 99.67982 | 3652 ft | 239 kts | 284° |
| 2026-05-06 11:27 | 6.13505 | 99.66528 | 3470 ft | 232 kts | 316° |
| 2026-05-06 11:27 | 6.14766 | 99.65530 | 3352 ft | 232 kts | 327° |
| 2026-05-06 11:27 | 6.16092 | 99.64597 | 3206 ft | 233 kts | 330° |
| 2026-05-06 11:28 | 6.17558 | 99.63997 | 3027 ft | 226 kts | 351° |
| 2026-05-06 11:28 | 6.19116 | 99.63943 | 2841 ft | 222 kts | 10° |
| 2026-05-06 11:28 | 6.20535 | 99.64398 | 2631 ft | 206 kts | 29° |
| 2026-05-06 11:28 | 6.21701 | 99.65155 | 2370 ft | 195 kts | 35° |
| 2026-05-06 11:29 | 6.22805 | 99.65911 | 2119 ft | 189 kts | 35° |
| 2026-05-06 11:29 | 6.23845 | 99.66621 | 1909 ft | 170 kts | 36° |
| 2026-05-06 11:29 | 6.24779 | 99.67259 | 1685 ft | 155 kts | 35° |
| 2026-05-06 11:29 | 6.25652 | 99.67856 | 1488 ft | 149 kts | 35° |
| 2026-05-06 11:30 | 6.26503 | 99.68437 | 1302 ft | 147 kts | 35° |
| 2026-05-06 11:30 | 6.27344 | 99.69011 | 1112 ft | 145 kts | 35° |
| 2026-05-06 11:30 | 6.28180 | 99.69583 | 924 ft | 145 kts | 35° |
| 2026-05-06 11:30 | 6.29017 | 99.70155 | 750 ft | 146 kts | 34° |
| 2026-05-06 11:31 | 6.29847 | 99.70722 | 572 ft | 146 kts | 35° |
| 2026-05-06 11:31 | 6.30699 | 99.71304 | 382 ft | 146 kts | 35° |
| 2026-05-06 11:31 | 6.31532 | 99.71880 | 162 ft | 148 kts | 36° |
| 2026-05-06 11:31 | 6.32371 | 99.72452 | 39 ft | 142 kts | 34° |
| 2026-05-06 11:32 | 6.33151 | 99.72988 | 30 ft | 129 kts | 34° |
| 2026-05-06 11:32 | 6.33923 | 99.73464 | 92 ft | 145 kts | 31° |
| 2026-05-06 11:32 | 6.34805 | 99.74101 | 567 ft | 165 kts | 40° |
| 2026-05-06 11:32 | 6.35666 | 99.74940 | 1130 ft | 178 kts | 49° |
| 2026-05-06 11:33 | 6.36275 | 99.76044 | 1698 ft | 189 kts | 83° |
| 2026-05-06 11:33 | 6.35930 | 99.77367 | 2257 ft | 210 kts | 113° |
| 2026-05-06 11:33 | 6.35309 | 99.78751 | 2676 ft | 222 kts | 113° |
| 2026-05-06 11:33 | 6.34682 | 99.80178 | 3061 ft | 224 kts | 111° |
| 2026-05-06 11:34 | 6.34067 | 99.81620 | 3448 ft | 225 kts | 112° |
| 2026-05-06 11:34 | 6.33419 | 99.83055 | 3846 ft | 226 kts | 114° |
| 2026-05-06 11:34 | 6.32625 | 99.84505 | 3521 ft | 269 kts | 129° |
| 2026-05-06 11:34 | 6.30820 | 99.85565 | 3227 ft | 325 kts | 165° |
| 2026-05-06 11:35 | 6.28640 | 99.85822 | 4176 ft | 299 kts | 178° |
| 2026-05-06 11:35 | 6.26684 | 99.85768 | 4542 ft | 266 kts | 182° |
| 2026-05-06 11:35 | 6.24929 | 99.85628 | 4736 ft | 244 kts | 183° |
| 2026-05-06 11:35 | 6.23256 | 99.85506 | 4803 ft | 240 kts | 182° |
| 2026-05-06 11:36 | 6.21594 | 99.85427 | 4813 ft | 239 kts | 180° |
| 2026-05-06 11:36 | 6.19934 | 99.85389 | 4817 ft | 239 kts | 179° |
| 2026-05-06 11:36 | 6.18275 | 99.85377 | 4819 ft | 238 kts | 178° |
| 2026-05-06 11:36 | 6.16618 | 99.85379 | 4818 ft | 238 kts | 178° |
| 2026-05-06 11:37 | 6.14979 | 99.85171 | 4817 ft | 239 kts | 199° |
| 2026-05-06 11:37 | 6.13590 | 99.84268 | 4821 ft | 241 kts | 228° |
| 2026-05-06 11:37 | 6.12777 | 99.82812 | 4824 ft | 242 kts | 257° |
| 2026-05-06 11:37 | 6.12583 | 99.81135 | 4824 ft | 243 kts | 266° |
| 2026-05-06 11:38 | 6.12465 | 99.79458 | 4820 ft | 244 kts | 266° |
| 2026-05-06 11:38 | 6.12347 | 99.77758 | 4821 ft | 244 kts | 266° |
| 2026-05-06 11:38 | 6.12223 | 99.76052 | 4718 ft | 246 kts | 266° |
| 2026-05-06 11:38 | 6.12097 | 99.74349 | 4454 ft | 243 kts | 266° |
| 2026-05-06 11:39 | 6.11973 | 99.72661 | 4180 ft | 241 kts | 266° |
| 2026-05-06 11:39 | 6.11850 | 99.70983 | 3840 ft | 242 kts | 268° |
| 2026-05-06 11:39 | 6.11979 | 99.69311 | 3450 ft | 241 kts | 285° |
| 2026-05-06 11:39 | 6.12586 | 99.67752 | 3069 ft | 240 kts | 302° |
| 2026-05-06 11:40 | 6.13616 | 99.66455 | 2679 ft | 237 kts | 322° |
| 2026-05-06 11:40 | 6.14907 | 99.65448 | 2414 ft | 234 kts | 316° |
| 2026-05-06 11:40 | 6.15938 | 99.64203 | 2230 ft | 227 kts | 316° |
| 2026-05-06 11:40 | 6.17245 | 99.63382 | 2213 ft | 223 kts | 347° |
| 2026-05-06 11:41 | 6.18772 | 99.63356 | 2182 ft | 222 kts | 17° |
| 2026-05-06 11:41 | 6.20130 | 99.64070 | 2158 ft | 222 kts | 35° |
| 2026-05-06 11:41 | 6.21400 | 99.64946 | 2129 ft | 221 kts | 35° |
| 2026-05-06 11:41 | 6.22668 | 99.65818 | 2060 ft | 221 kts | 35° |
| 2026-05-06 11:42 | 6.23939 | 99.66687 | 1847 ft | 221 kts | 34° |
| 2026-05-06 11:42 | 6.25192 | 99.67542 | 1619 ft | 218 kts | 34° |
| 2026-05-06 11:42 | 6.26427 | 99.68385 | 1322 ft | 211 kts | 34° |
| 2026-05-06 11:42 | 6.27627 | 99.69205 | 1040 ft | 204 kts | 35° |
| 2026-05-06 11:43 | 6.28752 | 99.69974 | 800 ft | 186 kts | 34° |
| 2026-05-06 11:43 | 6.29753 | 99.70658 | 590 ft | 165 kts | 34° |
| 2026-05-06 11:43 | 6.30664 | 99.71282 | 355 ft | 153 kts | 35° |
| 2026-05-06 11:44 | 6.32288 | 99.72392 | 30 ft | 128 kts | 35° |
| 2026-05-06 11:44 | 6.32829 | 99.72748 | 41 ft | 146 kts | 32° |
| 2026-05-06 11:44 | 6.33997 | 99.73570 | 586 ft | 157 kts | 36° |
| 2026-05-06 11:44 | 6.34917 | 99.74243 | 1256 ft | 172 kts | 39° |
| 2026-05-06 11:45 | 6.35446 | 99.74885 | 1588 ft | 190 kts | 75° |
| 2026-05-06 11:45 | 6.35279 | 99.76248 | 2159 ft | 219 kts | 113° |
| 2026-05-06 11:45 | 6.34616 | 99.77776 | 2650 ft | 256 kts | 112° |
| 2026-05-06 11:45 | 6.33862 | 99.79513 | 3333 ft | 285 kts | 112° |
| 2026-05-06 11:46 | 6.33028 | 99.81415 | 4099 ft | 309 kts | 113° |
| 2026-05-06 11:46 | 6.32125 | 99.83449 | 4967 ft | 329 kts | 113° |
| 2026-05-06 11:46 | 6.30950 | 99.85602 | 4414 ft | 384 kts | 127° |
| 2026-05-06 11:46 | 6.28956 | 99.87591 | 4405 ft | 403 kts | 136° |
| 2026-05-06 11:47 | 6.27084 | 99.89326 | 5902 ft | 377 kts | 136° |
| 2026-05-06 11:47 | 6.26917 | 99.89480 | 6037 ft | 375 kts | 136° |
| 2026-05-06 11:48 | 6.25042 | 99.91198 | 7450 ft | 353 kts | 140° |
| 2026-05-06 11:48 | 6.22995 | 99.92487 | 8636 ft | 347 kts | 155° |
| 2026-05-06 11:48 | 6.20647 | 99.93166 | 9221 ft | 358 kts | 167° |
| 2026-05-06 11:48 | 6.18153 | 99.93659 | 9535 ft | 374 kts | 168° |
| 2026-05-06 11:49 | 6.15536 | 99.94149 | 9738 ft | 391 kts | 168° |
| 2026-05-06 11:49 | 6.12797 | 99.94657 | 9812 ft | 408 kts | 168° |
| 2026-05-06 11:49 | 6.09985 | 99.95183 | 9822 ft | 413 kts | 168° |
| 2026-05-06 11:49 | 6.07161 | 99.95719 | 9821 ft | 413 kts | 168° |
| 2026-05-06 11:50 | 6.04374 | 99.96254 | 9821 ft | 413 kts | 168° |
| 2026-05-06 11:50 | 6.01549 | 99.96802 | 9822 ft | 413 kts | 168° |
| 2026-05-06 11:50 | 5.98725 | 99.97352 | 9822 ft | 413 kts | 168° |
| 2026-05-06 11:50 | 5.95912 | 99.97899 | 9821 ft | 411 kts | 168° |
| 2026-05-06 11:51 | 5.93104 | 99.98445 | 9821 ft | 411 kts | 168° |
| 2026-05-06 11:51 | 5.90296 | 99.98992 | 9821 ft | 411 kts | 168° |
| 2026-05-06 11:51 | 5.87485 | 99.99538 | 9821 ft | 411 kts | 168° |
| 2026-05-06 11:51 | 5.84680 | 100.00083 | 9816 ft | 411 kts | 168° |
| 2026-05-06 11:52 | 5.81868 | 100.00627 | 9816 ft | 411 kts | 168° |
| 2026-05-06 11:52 | 5.79059 | 100.01171 | 9816 ft | 411 kts | 168° |
| 2026-05-06 11:52 | 5.76247 | 100.01717 | 9816 ft | 411 kts | 168° |
| 2026-05-06 11:52 | 5.73438 | 100.02263 | 9816 ft | 411 kts | 168° |
| 2026-05-06 11:53 | 5.70629 | 100.02807 | 9811 ft | 411 kts | 168° |
| 2026-05-06 11:53 | 5.67820 | 100.03350 | 9813 ft | 411 kts | 168° |
| 2026-05-06 11:53 | 5.65012 | 100.03892 | 9813 ft | 411 kts | 168° |
| 2026-05-06 11:53 | 5.62206 | 100.04433 | 9813 ft | 411 kts | 168° |
| 2026-05-06 11:54 | 5.59402 | 100.04978 | 9818 ft | 410 kts | 168° |
| 2026-05-06 11:54 | 5.56599 | 100.05525 | 9814 ft | 410 kts | 168° |
| 2026-05-06 11:54 | 5.53799 | 100.06069 | 9812 ft | 410 kts | 168° |
| 2026-05-06 11:54 | 5.50999 | 100.06610 | 9808 ft | 410 kts | 168° |
| 2026-05-06 11:55 | 5.48199 | 100.07153 | 9805 ft | 410 kts | 168° |
| 2026-05-06 11:55 | 5.45403 | 100.07697 | 9803 ft | 410 kts | 168° |
| 2026-05-06 11:55 | 5.42641 | 100.08235 | 9800 ft | 410 kts | 168° |
| 2026-05-06 11:55 | 5.39844 | 100.08776 | 9805 ft | 410 kts | 168° |
| 2026-05-06 11:56 | 5.37044 | 100.09315 | 9830 ft | 410 kts | 168° |
| 2026-05-06 11:56 | 5.34242 | 100.09854 | 9860 ft | 410 kts | 168° |
| 2026-05-06 11:56 | 5.31438 | 100.10394 | 9924 ft | 410 kts | 168° |
| 2026-05-06 11:56 | 5.28635 | 100.10934 | 9979 ft | 408 kts | 168° |
| 2026-05-06 11:57 | 5.25907 | 100.11462 | 9754 ft | 391 kts | 168° |
| 2026-05-06 11:57 | 5.23279 | 100.11973 | 9338 ft | 379 kts | 168° |
| 2026-05-06 11:57 | 5.20717 | 100.12471 | 8864 ft | 370 kts | 168° |
| 2026-05-06 11:57 | 5.18218 | 100.12955 | 8398 ft | 361 kts | 168° |
| 2026-05-06 11:58 | 5.15777 | 100.13429 | 7939 ft | 353 kts | 168° |
| 2026-05-06 11:58 | 5.13373 | 100.13829 | 7485 ft | 347 kts | 175° |
| 2026-05-06 11:58 | 5.10995 | 100.13595 | 7035 ft | 343 kts | 194° |
| 2026-05-06 11:58 | 5.08851 | 100.12597 | 6607 ft | 339 kts | 214° |
| 2026-05-06 11:59 | 5.07195 | 100.10983 | 6173 ft | 336 kts | 234° |
| 2026-05-06 11:59 | 5.06150 | 100.08917 | 5716 ft | 332 kts | 253° |
| 2026-05-06 11:59 | 5.05826 | 100.06654 | 5255 ft | 327 kts | 272° |
| 2026-05-06 11:59 | 5.06225 | 100.04439 | 4803 ft | 322 kts | 290° |
| 2026-05-06 12:00 | 5.07279 | 100.02489 | 4345 ft | 317 kts | 308° |
| 2026-05-06 12:00 | 5.08855 | 100.00979 | 3889 ft | 312 kts | 326° |
| 2026-05-06 12:00 | 5.10811 | 100.00041 | 3415 ft | 306 kts | 346° |
| 2026-05-06 12:00 | 5.12880 | 99.99856 | 2976 ft | 302 kts | 7° |
| 2026-05-06 12:01 | 5.14834 | 100.00435 | 2869 ft | 284 kts | 28° |
| 2026-05-06 12:01 | 5.16365 | 100.01553 | 2861 ft | 263 kts | 47° |
| 2026-05-06 12:01 | 5.17379 | 100.02979 | 2856 ft | 243 kts | 65° |
| 2026-05-06 12:01 | 5.17881 | 100.04527 | 2850 ft | 226 kts | 83° |
| 2026-05-06 12:02 | 5.17919 | 100.06083 | 2848 ft | 222 kts | 98° |
| 2026-05-06 12:02 | 5.17538 | 100.07580 | 2847 ft | 222 kts | 114° |
| 2026-05-06 12:02 | 5.16831 | 100.08955 | 2845 ft | 222 kts | 119° |
| 2026-05-06 12:02 | 5.16135 | 100.10340 | 2843 ft | 223 kts | 111° |
| 2026-05-06 12:03 | 5.15786 | 100.11847 | 2838 ft | 223 kts | 95° |
| 2026-05-06 12:03 | 5.15845 | 100.13405 | 2834 ft | 224 kts | 81° |
| 2026-05-06 12:03 | 5.16301 | 100.14899 | 2834 ft | 225 kts | 65° |
| 2026-05-06 12:03 | 5.17134 | 100.16225 | 2830 ft | 226 kts | 50° |
| 2026-05-06 12:04 | 5.18259 | 100.17346 | 2575 ft | 228 kts | 43° |
| 2026-05-06 12:04 | 5.19445 | 100.18395 | 2290 ft | 227 kts | 42° |
| 2026-05-06 12:04 | 5.20619 | 100.19447 | 1998 ft | 225 kts | 43° |
| 2026-05-06 12:04 | 5.21730 | 100.20451 | 1719 ft | 224 kts | 43° |
| 2026-05-06 12:05 | 5.22875 | 100.21489 | 1430 ft | 218 kts | 42° |
| 2026-05-06 12:05 | 5.23974 | 100.22483 | 1188 ft | 206 kts | 43° |
| 2026-05-06 12:05 | 5.25006 | 100.23418 | 915 ft | 192 kts | 41° |
| 2026-05-06 12:05 | 5.25944 | 100.24267 | 722 ft | 171 kts | 42° |
| 2026-05-06 12:06 | 5.26794 | 100.25037 | 507 ft | 159 kts | 41° |
| 2026-05-06 12:06 | 5.27599 | 100.25762 | 308 ft | 152 kts | 42° |
| 2026-05-06 12:06 | 5.28363 | 100.26453 | 118 ft | 147 kts | 43° |
| 2026-05-06 12:06 | 5.29104 | 100.27127 | 27 ft | 135 kts | 41° |
| 2026-05-06 12:07 | 5.29532 | 100.27528 | 18 ft | 86 kts | 43° |
| 2026-05-06 12:07 | 5.29751 | 100.27720 | 21 ft | 15 kts | 40° |
| 2026-05-06 12:07 | 5.29845 | 100.27779 | 21 ft | 14 kts | 31° |
| 2026-05-06 12:07 | 5.29928 | 100.27816 | 21 ft | 12 kts | 11° |
| 2026-05-06 12:08 | 5.30011 | 100.27833 | 19 ft | 9 kts | 11° |
| 2026-05-06 12:08 | 5.30017 | 100.27834 | 19 ft | 0 kts | 12° |
| 2026-05-06 12:11 | 5.30037 | 100.27839 | 19 ft | 13 kts | 12° |
| 2026-05-06 12:12 | 5.30129 | 100.27827 | 18 ft | 11 kts | 289° |
| 2026-05-06 12:12 | 5.30094 | 100.27779 | 18 ft | 9 kts | 223° |
| 2026-05-06 12:12 | 5.29936 | 100.27630 | 19 ft | 73 kts | 221° |
| 2026-05-06 12:12 | 5.29417 | 100.27156 | 18 ft | 114 kts | 221° |
| 2026-05-06 12:13 | 5.29120 | 100.26891 | 19 ft | 0 kts | 224° |